Time;durP1;ratioP1;P1;durP2;ratioP2;P2;SDS_P1;SDS_P2;PMS_P1;PMS_P2;Temp;Humidity;BMP_temperature;BMP_pressure;BME280_temperature;BME280_humidity;BME280_pressure;Samples;Min_cycle;Max_cycle;Signal;HPM_P1;HPM_P2
2022/08/24 00:00:59;;;;;;;;;15.40;15.40;;;;;22.10;47.74;99979.59;5074111;28;8832;-61
2022/08/24 00:03:26;;;;;;;;;15.60;15.60;;;;;22.05;47.96;99987.47;5074638;28;8848;-63
2022/08/24 00:06:01;;;;;;;;;15.00;15.00;;;;;22.00;48.63;99979.09;5075103;28;8827;-62
2022/08/24 00:08:28;;;;;;;;;16.60;15.80;;;;;21.97;47.98;99991.16;5074949;28;8859;-62
2022/08/24 00:10:58;;;;;;;;;15.40;15.00;;;;;21.95;48.10;99987.78;5074492;28;8966;-62
2022/08/24 00:13:26;;;;;;;;;13.60;13.60;;;;;21.94;48.50;99990.72;5074572;28;8828;-63
2022/08/24 00:15:58;;;;;;;;;14.80;14.80;;;;;21.93;48.33;99987.16;5074972;28;8982;-62
2022/08/24 00:18:26;;;;;;;;;19.80;17.40;;;;;21.92;48.32;99982.75;5074733;28;8836;-62
2022/08/24 00:20:54;;;;;;;;;15.20;14.60;;;;;21.92;48.22;99981.91;5074489;28;8843;-61
2022/08/24 00:23:22;;;;;;;;;15.80;15.00;;;;;21.94;48.37;99985.28;5074928;28;8832;-61
2022/08/24 00:25:49;;;;;;;;;14.40;13.40;;;;;21.97;48.63;99990.31;5074859;28;8958;-62
2022/08/24 00:28:17;;;;;;;;;14.20;13.80;;;;;22.02;48.80;99988.69;5074071;28;8866;-62
2022/08/24 00:30:45;;;;;;;;;15.80;15.80;;;;;22.06;48.36;99989.16;5074628;28;9494;-62
2022/08/24 00:33:13;;;;;;;;;12.80;12.00;;;;;22.08;48.68;99984.38;5074539;28;9018;-62
2022/08/24 00:35:41;;;;;;;;;15.60;14.80;;;;;22.09;48.29;99988.78;5074728;28;9617;-62
2022/08/24 00:38:09;;;;;;;;;17.40;16.40;;;;;22.04;48.89;99991.22;5074890;28;8986;-63
2022/08/24 00:40:37;;;;;;;;;17.40;15.40;;;;;21.96;48.98;99989.50;5073993;28;9077;-61
2022/08/24 00:43:05;;;;;;;;;14.00;13.00;;;;;21.87;48.74;99997.94;5074616;28;9751;-61
2022/08/24 00:45:32;;;;;;;;;16.60;15.80;;;;;21.77;49.07;99989.25;5074701;28;9493;-62
2022/08/24 00:48:00;;;;;;;;;13.00;13.00;;;;;21.66;49.31;99992.47;5074340;28;8830;-62
2022/08/24 00:50:28;;;;;;;;;16.80;16.00;;;;;21.55;49.69;99988.34;5073756;28;8847;-62
2022/08/24 00:52:56;;;;;;;;;16.40;16.20;;;;;21.45;49.93;99995.97;5074140;28;8820;-63
2022/08/24 00:55:24;;;;;;;;;18.40;16.80;;;;;21.36;50.07;99988.97;5074161;28;8836;-63
2022/08/24 00:57:53;;;;;;;;;19.20;18.20;;;;;21.25;49.81;99988.63;5074588;28;9548;-62
2022/08/24 01:00:21;;;;;;;;;15.80;15.40;;;;;21.18;50.64;99993.94;5074111;28;8979;-62
2022/08/24 01:02:49;;;;;;;;;15.80;15.00;;;;;21.10;50.47;99990.50;5074561;28;9336;-63
2022/08/24 01:05:18;;;;;;;;;18.40;17.20;;;;;21.03;50.53;99989.56;5074199;28;8955;-62
2022/08/24 01:07:45;;;;;;;;;15.60;13.60;;;;;20.97;50.59;99995.72;5074790;28;9493;-63
2022/08/24 01:10:13;;;;;;;;;16.20;16.00;;;;;20.92;51.00;99995.44;5074259;28;9010;-61
2022/08/24 01:12:42;;;;;;;;;15.00;14.40;;;;;20.87;51.25;99995.19;5074715;28;8852;-62
2022/08/24 01:15:27;;;;;;;;;11.80;11.80;;;;;20.80;51.40;99996.91;5077956;28;8835;-61
2022/08/24 01:20:40;;;;;;;;;17.20;16.00;;;;;20.71;51.02;100003.41;5077802;28;8832;-61
2022/08/24 01:23:08;;;;;;;;;15.40;15.40;;;;;20.67;51.65;99994.00;5077696;28;8840;-62
2022/08/24 01:25:35;;;;;;;;;18.00;16.80;;;;;20.62;51.22;99985.59;5077979;28;8844;-61
2022/08/24 01:28:05;;;;;;;;;14.40;14.00;;;;;20.58;51.32;99987.00;5077491;28;8913;-61
2022/08/24 01:30:33;;;;;;;;;19.00;18.00;;;;;20.55;51.73;99984.63;5077118;28;8843;-61
2022/08/24 01:33:03;;;;;;;;;18.40;17.20;;;;;20.52;51.68;99978.75;5077295;28;9006;-62
2022/08/24 01:35:31;;;;;;;;;19.00;18.80;;;;;20.48;51.44;99983.69;5077293;28;8847;-61
2022/08/24 01:37:58;;;;;;;;;19.00;15.00;;;;;20.46;52.09;99987.63;5077450;28;8836;-62
2022/08/24 01:40:26;;;;;;;;;20.20;17.20;;;;;20.45;51.74;99991.34;5077657;28;8828;-61
2022/08/24 01:42:54;;;;;;;;;20.80;20.80;;;;;20.42;51.67;99997.97;5077096;28;8905;-61
2022/08/24 01:45:22;;;;;;;;;18.60;17.00;;;;;20.38;51.65;99996.66;5079593;28;8820;-61
2022/08/24 01:47:50;;;;;;;;;19.40;18.60;;;;;20.34;51.81;99987.19;5084331;28;8854;-61
2022/08/24 01:50:18;;;;;;;;;17.40;17.00;;;;;20.31;52.04;99987.56;5078172;28;8844;-62
2022/08/24 01:52:45;;;;;;;;;22.20;20.80;;;;;20.28;51.69;99987.09;5078122;28;8843;-61
2022/08/24 01:55:31;;;;;;;;;14.20;14.00;;;;;20.22;52.20;99991.38;5082495;28;8830;-62
2022/08/24 01:57:59;;;;;;;;;17.80;17.80;;;;;20.17;52.43;99996.47;5098124;28;8952;-62
2022/08/24 02:00:27;;;;;;;;;19.80;18.20;;;;;20.11;52.54;99994.50;5097689;28;8850;-62
2022/08/24 02:02:55;;;;;;;;;15.20;15.20;;;;;20.06;52.58;99994.22;5098163;28;8870;-61
2022/08/24 02:05:24;;;;;;;;;17.20;17.00;;;;;20.01;52.41;99991.19;5094081;28;8828;-61
2022/08/24 02:07:51;;;;;;;;;19.40;19.00;;;;;20.00;52.68;99994.06;5077217;28;8827;-61
2022/08/24 02:10:20;;;;;;;;;18.20;17.80;;;;;19.98;52.66;99999.66;5077494;28;8982;-61
2022/08/24 02:12:56;;;;;;;;;17.60;17.60;;;;;19.98;52.86;100004.22;5077629;28;8844;-61
2022/08/24 02:15:26;;;;;;;;;21.80;18.20;;;;;19.93;52.92;100007.47;5080571;28;8818;-60
2022/08/24 02:17:54;;;;;;;;;19.20;18.20;;;;;19.88;53.08;100000.91;5097617;28;8837;-62
2022/08/24 02:20:21;;;;;;;;;11.20;11.20;;;;;19.83;53.23;99996.06;5097436;28;8981;-61
2022/08/24 02:22:49;;;;;;;;;16.40;15.20;;;;;19.77;53.48;99996.75;5097937;28;9582;-61
2022/08/24 02:25:17;;;;;;;;;18.00;17.80;;;;;19.72;53.23;100001.03;5094328;28;9634;-62
2022/08/24 02:27:45;;;;;;;;;19.00;17.60;;;;;19.64;53.36;99996.50;5076997;28;8872;-62
2022/08/24 02:30:13;;;;;;;;;17.80;17.60;;;;;19.58;53.73;100005.31;5076868;28;8970;-62
2022/08/24 02:32:41;;;;;;;;;18.80;17.20;;;;;19.53;53.61;100002.31;5077181;28;8991;-62
2022/08/24 02:35:09;;;;;;;;;18.80;17.80;;;;;19.51;53.42;100003.50;5077660;28;8954;-62
2022/08/24 02:37:37;;;;;;;;;23.00;20.00;;;;;19.47;53.68;100002.16;5096954;28;8930;-62
2022/08/24 02:40:10;;;;;;;;;19.40;18.80;;;;;19.43;53.74;99998.97;5096927;28;8864;-62
2022/08/24 02:42:38;;;;;;;;;17.80;17.40;;;;;19.40;53.83;100007.44;5096521;28;9741;-63
2022/08/24 02:45:06;;;;;;;;;16.80;16.80;;;;;19.39;54.07;99992.25;5096976;28;8870;-62
2022/08/24 02:47:33;;;;;;;;;18.80;17.20;;;;;19.36;53.90;100000.69;5076860;28;8837;-62
2022/08/24 02:50:06;;;;;;;;;13.40;11.00;;;;;19.34;54.08;99997.34;5077018;28;8872;-62
2022/08/24 02:52:34;;;;;;;;;16.40;16.00;;;;;19.29;54.48;99999.75;5076877;28;8858;-62
2022/08/24 02:55:02;;;;;;;;;19.25;18.00;;;;;19.24;54.25;99996.72;5076368;28;8857;-62
2022/08/24 02:57:30;;;;;;;;;16.60;15.80;;;;;19.22;54.08;100006.88;5076513;28;8942;-61
2022/08/24 02:59:58;;;;;;;;;20.75;19.75;;;;;19.19;54.47;99999.09;5076503;28;8828;-63
2022/08/24 03:02:26;;;;;;;;;18.50;17.00;;;;;19.18;54.46;100004.66;5075882;28;8896;-61
2022/08/24 03:04:54;;;;;;;;;19.40;19.20;;;;;19.18;54.29;100010.88;5076393;28;8848;-62
2022/08/24 03:07:22;;;;;;;;;18.80;18.00;;;;;19.18;54.37;100001.97;5094377;28;8884;-64
2022/08/24 03:09:50;;;;;;;;;20.00;19.00;;;;;19.18;54.50;100007.38;5082074;28;8816;-62
2022/08/24 03:12:17;;;;;;;;;15.60;14.40;;;;;19.17;54.38;100008.34;5076674;28;8980;-63
2022/08/24 03:14:45;;;;;;;;;21.75;20.50;;;;;19.17;54.60;100011.06;5076219;28;8886;-62
2022/08/24 03:17:13;;;;;;;;;16.00;15.80;;;;;19.14;54.40;100009.56;5076359;28;8848;-62
2022/08/24 03:19:41;;;;;;;;;16.80;16.60;;;;;19.13;54.71;100015.13;5087471;28;8818;-62
2022/08/24 03:22:09;;;;;;;;;17.60;17.00;;;;;19.10;54.90;100013.63;5096437;28;8914;-62
2022/08/24 03:24:36;;;;;;;;;16.20;15.20;;;;;19.07;54.51;100015.81;5096239;28;8826;-62
2022/08/24 03:27:05;;;;;;;;;19.00;17.40;;;;;19.06;54.47;100019.53;5095938;28;8825;-61
2022/08/24 03:29:35;;;;;;;;;15.50;15.50;;;;;19.04;54.65;100008.09;5084873;28;8906;-62
2022/08/24 03:32:03;;;;;;;;;17.50;16.50;;;;;19.00;54.73;100004.91;5075708;28;9550;-62
2022/08/24 03:34:31;;;;;;;;;19.50;18.00;;;;;18.96;54.97;100011.63;5075998;28;8843;-62
2022/08/24 03:36:59;;;;;;;;;12.80;12.80;;;;;18.89;54.91;100010.66;5075248;28;8852;-62
2022/08/24 03:39:27;;;;;;;;;19.00;18.60;;;;;18.80;55.45;100009.00;5084417;28;8940;-62
2022/08/24 03:41:54;;;;;;;;;13.00;11.50;;;;;18.68;55.56;100013.06;5095854;28;8834;-62
2022/08/24 03:44:24;;;;;;;;;11.80;10.40;;;;;18.58;55.36;100008.88;5095504;28;9023;-62
2022/08/24 03:46:52;;;;;;;;;18.00;17.00;;;;;18.51;55.97;100008.72;5095543;28;8944;-62
2022/08/24 03:49:20;;;;;;;;;14.50;14.50;;;;;18.44;55.73;100005.00;5086488;28;8824;-61
2022/08/24 03:51:48;;;;;;;;;16.00;16.00;;;;;18.38;55.93;100005.69;5075374;28;8979;-62
2022/08/24 03:54:16;;;;;;;;;16.25;15.50;;;;;18.33;56.25;100007.19;5075651;28;8970;-61
2022/08/24 03:56:44;;;;;;;;;15.50;15.25;;;;;18.30;56.68;100007.56;5075727;28;8909;-62
2022/08/24 03:59:13;;;;;;;;;25.00;21.75;;;;;18.28;56.45;100015.78;5082123;28;8830;-61
2022/08/24 04:01:46;;;;;;;;;18.00;15.75;;;;;18.28;56.17;100012.25;5096035;28;8992;-63
2022/08/24 04:04:14;;;;;;;;;18.00;16.25;;;;;18.26;56.60;100011.56;5095455;28;8907;-62
2022/08/24 04:06:45;;;;;;;;;19.00;19.00;;;;;18.26;56.00;100008.84;5095817;28;8846;-61
2022/08/24 04:09:13;;;;;;;;;16.00;15.50;;;;;18.26;56.38;100025.03;5088663;28;8823;-64
2022/08/24 04:11:41;;;;;;;;;15.50;15.00;;;;;18.27;56.55;100008.69;5075213;28;8836;-62
2022/08/24 04:14:09;;;;;;;;;16.25;15.25;;;;;18.28;56.20;100012.25;5075162;28;8848;-62
2022/08/24 04:16:53;;;;;;;;;15.75;15.50;;;;;18.25;56.27;100018.81;5074921;28;8835;-63
2022/08/24 04:19:24;;;;;;;;;15.75;15.75;;;;;18.21;56.39;100022.84;5081799;28;8818;-62
2022/08/24 04:21:52;;;;;;;;;16.25;15.50;;;;;18.16;56.45;100027.94;5094554;28;8964;-62
2022/08/24 04:24:20;;;;;;;;;13.50;13.50;;;;;18.11;56.56;100027.56;5094471;28;8904;-62
2022/08/24 04:26:48;;;;;;;;;13.75;12.50;;;;;18.06;56.56;100029.91;5094317;28;8852;-64
2022/08/24 04:29:16;;;;;;;;;18.50;14.75;;;;;18.02;56.92;100019.63;5087303;28;8956;-61
2022/08/24 04:31:43;;;;;;;;;19.25;18.00;;;;;18.02;56.99;100025.03;5074599;28;8959;-63
2022/08/24 04:34:11;;;;;;;;;15.00;15.00;;;;;18.04;56.89;100025.69;5073988;28;8928;-62
2022/08/24 04:36:39;;;;;;;;;15.25;12.75;;;;;18.05;56.46;100024.69;5074127;28;8962;-63
2022/08/24 04:39:07;;;;;;;;;16.00;15.00;;;;;18.06;56.82;100029.91;5078299;28;8872;-62
2022/08/24 04:41:35;;;;;;;;;14.00;13.00;;;;;18.08;56.33;100022.50;5093715;28;8830;-61
2022/08/24 04:44:03;;;;;;;;;13.00;12.50;;;;;18.11;56.75;100024.88;5094745;28;8822;-61
2022/08/24 04:46:31;;;;;;;;;13.00;13.00;;;;;18.11;56.19;100024.03;5095438;28;8972;-61
2022/08/24 04:48:59;;;;;;;;;16.00;15.00;;;;;18.07;56.55;100023.50;5093519;28;8966;-65
2022/08/24 04:51:27;;;;;;;;;19.00;16.00;;;;;18.04;56.54;100021.16;5078162;28;8832;-60
2022/08/24 04:54:02;;;;;;;;;12.50;12.25;;;;;18.01;56.37;100016.13;5078008;28;8832;-61
2022/08/24 04:56:30;;;;;;;;;16.75;16.00;;;;;17.99;56.82;100028.91;5077881;28;9619;-61
2022/08/24 04:58:58;;;;;;;;;14.50;13.00;;;;;17.98;56.44;100032.59;5080528;28;8826;-61
2022/08/24 05:01:26;;;;;;;;;13.00;13.00;;;;;18.00;56.51;100032.44;5098114;28;8949;-62
2022/08/24 05:03:53;;;;;;;;;12.00;10.00;;;;;17.99;56.52;100028.91;5098442;28;8826;-61
2022/08/24 05:06:21;;;;;;;;;12.50;11.50;;;;;18.02;56.95;100041.19;5098665;28;8814;-61
2022/08/24 05:08:49;;;;;;;;;10.00;9.75;;;;;18.07;56.70;100036.16;5095978;28;8972;-61
2022/08/24 05:11:17;;;;;;;;;13.00;12.50;;;;;18.13;56.04;100041.72;5079546;28;8956;-61
2022/08/24 05:13:45;;;;;;;;;13.50;11.00;;;;;18.22;56.24;100038.00;5089938;28;8826;-61
2022/08/24 05:16:12;;;;;;;;;15.50;14.00;;;;;18.32;55.87;100037.88;5097548;28;8906;-62
2022/08/24 05:18:40;;;;;;;;;9.80;9.00;;;;;18.41;55.92;100042.25;5096640;28;8830;-61
2022/08/24 05:21:08;;;;;;;;;16.40;15.40;;;;;18.54;55.38;100040.75;5097399;28;8826;-62
2022/08/24 05:23:36;;;;;;;;;14.60;14.40;;;;;18.69;54.95;100032.78;5097925;28;8827;-62
2022/08/24 05:26:04;;;;;;;;;15.50;15.25;;;;;18.86;55.01;100039.84;5096529;28;9168;-62
2022/08/24 05:28:34;;;;;;;;;15.00;14.00;;;;;19.04;54.49;100044.00;5094467;28;8840;-62
2022/08/24 05:31:01;;;;;;;;;17.40;15.80;;;;;19.21;54.46;100042.13;5094963;28;8838;-61
2022/08/24 05:33:29;;;;;;;;;14.60;14.60;;;;;19.32;54.22;100048.00;5094319;28;8858;-61
2022/08/24 05:35:57;;;;;;;;;16.60;16.00;;;;;19.41;54.12;100046.13;5094355;28;8855;-61
2022/08/24 05:38:24;;;;;;;;;16.25;16.00;;;;;19.50;54.10;100039.66;5095044;28;8838;-61
2022/08/24 05:40:52;;;;;;;;;17.50;17.25;;;;;19.57;53.56;100054.16;5095281;28;9159;-61
2022/08/24 05:43:20;;;;;;;;;19.20;17.00;;;;;19.68;53.38;100049.19;5094547;28;9658;-62
2022/08/24 05:45:48;;;;;;;;;15.80;14.80;;;;;19.86;53.27;100051.63;5094919;28;8973;-61
2022/08/24 05:48:16;;;;;;;;;17.20;13.40;;;;;19.99;53.05;100050.00;5093766;28;8908;-62
2022/08/24 05:50:44;;;;;;;;;16.00;14.60;;;;;20.13;53.22;100043.00;5093439;28;8988;-63
2022/08/24 05:53:12;;;;;;;;;18.60;17.40;;;;;20.27;52.74;100051.19;5094416;28;8935;-62
2022/08/24 05:55:40;;;;;;;;;17.40;16.20;;;;;20.42;52.40;100043.97;5095117;28;8944;-62
2022/08/24 05:58:08;;;;;;;;;22.40;18.40;;;;;20.57;52.36;100042.16;5094755;28;8844;-62
2022/08/24 06:00:44;;;;;;;;;16.80;15.80;;;;;20.73;51.79;100048.22;5093195;28;8837;-62
2022/08/24 06:03:12;;;;;;;;;16.20;16.20;;;;;20.91;51.96;100050.63;5092646;28;8988;-62
2022/08/24 06:05:41;;;;;;;;;19.20;19.20;;;;;21.07;51.77;100055.88;5094084;28;8970;-61
2022/08/24 06:08:09;;;;;;;;;17.60;17.40;;;;;21.21;51.62;100052.31;5094384;28;9178;-62
2022/08/24 06:10:37;;;;;;;;;15.40;14.60;;;;;21.34;51.61;100057.94;5094093;28;8853;-61
2022/08/24 06:13:05;;;;;;;;;16.20;14.40;;;;;21.45;50.93;100066.44;5093453;28;8838;-62
2022/08/24 06:15:32;;;;;;;;;17.60;15.40;;;;;21.56;51.10;100060.50;5092309;28;8838;-62
2022/08/24 06:18:00;;;;;;;;;15.20;15.00;;;;;21.68;50.62;100056.34;5093560;28;8856;-62
2022/08/24 06:20:28;;;;;;;;;15.20;15.20;;;;;21.83;50.70;100059.84;5094135;28;8853;-62
2022/08/24 06:22:56;;;;;;;;;15.00;13.80;;;;;22.02;50.35;100064.66;5094621;28;9530;-62
2022/08/24 06:28:21;;;;;;;;;17.80;15.60;;;;;22.35;50.13;100060.41;5032753;28;8867;-61
2022/08/24 06:30:49;;;;;;;;;12.00;12.00;;;;;22.50;50.05;100068.50;5080530;28;8833;-61
2022/08/24 06:33:16;;;;;;;;;16.20;15.80;;;;;22.63;49.13;100066.75;5093882;28;8862;-62
2022/08/24 06:35:44;;;;;;;;;10.80;8.60;;;;;22.75;48.95;100059.75;5094577;28;8849;-62
2022/08/24 06:38:14;;;;;;;;;12.40;12.00;;;;;22.88;48.84;100068.03;5095002;28;8818;-62
2022/08/24 06:40:44;;;;;;;;;12.80;12.80;;;;;23.04;48.87;100061.44;5094842;28;8837;-62
2022/08/24 06:43:11;;;;;;;;;11.20;11.20;;;;;23.19;48.65;100064.91;5093240;28;8954;-62
2022/08/24 06:45:39;;;;;;;;;10.40;10.40;;;;;23.34;48.53;100069.19;5092571;28;8826;-61
2022/08/24 06:48:10;;;;;;;;;16.20;13.20;;;;;23.52;48.36;100071.38;5092608;28;8968;-61
2022/08/24 06:50:38;;;;;;;;;13.20;13.20;;;;;23.68;47.82;100069.16;5091936;28;8976;-61
2022/08/24 06:53:05;;;;;;;;;12.40;11.40;;;;;23.85;48.00;100066.91;5091701;28;8907;-62
2022/08/24 06:55:33;;;;;;;;;14.20;13.60;;;;;24.02;47.24;100073.69;5091064;28;8837;-62
2022/08/24 06:58:02;;;;;;;;;11.80;11.80;;;;;24.18;47.18;100066.00;5087538;28;9204;-62
2022/08/24 07:00:30;;;;;;;;;17.00;17.00;;;;;24.33;47.16;100068.53;5092257;28;8979;-62
2022/08/24 07:02:58;;;;;;;;;13.40;11.20;;;;;24.48;47.10;100066.47;5092136;28;8862;-62
2022/08/24 07:05:26;;;;;;;;;10.60;10.60;;;;;24.61;46.64;100069.25;5090344;28;8847;-62
2022/08/24 07:07:54;;;;;;;;;12.40;11.40;;;;;24.75;46.54;100070.94;5081852;28;8837;-62
2022/08/24 07:10:22;;;;;;;;;11.80;11.20;;;;;24.89;46.24;100069.88;5074580;28;9257;-62
2022/08/24 07:12:54;;;;;;;;;11.00;11.00;;;;;25.04;46.17;100076.78;5075870;28;8899;-62
2022/08/24 07:15:22;;;;;;;;;10.00;9.40;;;;;25.16;45.76;100086.00;5091779;28;8833;-62
2022/08/24 07:17:50;;;;;;;;;11.20;9.80;;;;;25.27;45.67;100085.41;5082790;28;8907;-62
2022/08/24 07:20:18;;;;;;;;;7.80;7.20;;;;;25.36;46.11;100084.13;5084081;28;8864;-62
2022/08/24 07:22:45;;;;;;;;;11.20;11.20;;;;;25.46;45.74;100087.22;5093054;28;8935;-62
2022/08/24 07:25:14;;;;;;;;;13.00;13.00;;;;;25.59;45.15;100085.28;5093841;28;8911;-62
2022/08/24 07:27:42;;;;;;;;;4.60;4.60;;;;;25.67;45.54;100085.06;5094444;28;8845;-62
2022/08/24 07:30:10;;;;;;;;;11.00;10.80;;;;;25.77;45.71;100087.34;5093468;28;8822;-62
2022/08/24 07:32:53;;;;;;;;;11.60;11.60;;;;;25.88;45.22;100087.53;5091708;28;8862;-61
2022/08/24 07:35:21;;;;;;;;;12.00;12.00;;;;;25.95;44.48;100093.81;5088785;28;8834;-63
2022/08/24 07:37:49;;;;;;;;;10.00;10.00;;;;;26.05;44.92;100088.69;5089287;28;8845;-62
2022/08/24 07:40:20;;;;;;;;;11.00;11.00;;;;;26.14;44.67;100092.03;5088009;28;8864;-62
2022/08/24 07:42:48;;;;;;;;;9.40;9.40;;;;;26.26;44.52;100091.13;5088896;28;8842;-63
2022/08/24 07:45:17;;;;;;;;;8.00;8.00;;;;;26.36;44.37;100086.03;5090822;28;8879;-62
2022/08/24 07:47:45;;;;;;;;;11.80;11.20;;;;;26.45;44.28;100089.31;5092231;28;8855;-61
2022/08/24 07:50:21;;;;;;;;;11.00;10.00;;;;;26.55;44.69;100090.53;5091711;28;9605;-62
2022/08/24 07:52:50;;;;;;;;;11.00;11.00;;;;;26.65;44.02;100095.53;5091991;28;8856;-63
2022/08/24 07:55:18;;;;;;;;;6.60;6.60;;;;;26.75;43.79;100095.88;5091301;28;8880;-62
2022/08/24 07:57:46;;;;;;;;;9.00;9.00;;;;;26.83;43.79;100092.84;5092435;28;8830;-62
2022/08/24 08:00:14;;;;;;;;;9.00;9.00;;;;;26.90;43.87;100094.50;5091357;28;8834;-61
2022/08/24 08:02:45;;;;;;;;;12.00;10.80;;;;;27.02;44.30;100089.94;5091134;28;8842;-61
2022/08/24 08:05:13;;;;;;;;;10.40;9.60;;;;;27.12;43.39;100097.66;5091646;28;8922;-62
2022/08/24 08:07:41;;;;;;;;;11.60;11.20;;;;;27.22;43.76;100100.72;5091969;28;8857;-62
2022/08/24 08:10:09;;;;;;;;;8.80;8.80;;;;;27.30;43.89;100098.56;5091874;28;8842;-63
2022/08/24 08:12:36;;;;;;;;;7.00;6.00;;;;;27.39;43.59;100110.88;5091439;28;8825;-62
2022/08/24 08:15:04;;;;;;;;;4.60;4.60;;;;;27.49;42.78;100111.22;5092142;28;8960;-62
2022/08/24 08:17:32;;;;;;;;;9.60;9.00;;;;;27.60;43.31;100109.59;5091880;28;8830;-62
2022/08/24 08:20:00;;;;;;;;;9.80;9.80;;;;;27.69;42.52;100111.81;5093558;28;9597;-62
2022/08/24 08:25:13;;;;;;;;;9.80;9.40;;;;;27.90;42.53;100108.66;5095984;28;8834;-61
2022/08/24 08:27:41;;;;;;;;;7.60;7.00;;;;;27.99;42.26;100111.94;5096317;28;8865;-61
2022/08/24 08:30:14;;;;;;;;;8.00;7.80;;;;;28.07;42.07;100109.69;5097248;28;8854;-62
2022/08/24 08:32:42;;;;;;;;;9.00;9.00;;;;;28.15;42.56;100105.81;5095523;28;8880;-62
2022/08/24 08:35:10;;;;;;;;;10.20;10.00;;;;;28.24;41.73;100105.28;5097175;28;8972;-61
2022/08/24 08:37:38;;;;;;;;;10.40;10.40;;;;;28.36;42.18;100108.91;5097414;28;9673;-62
2022/08/24 08:40:05;;;;;;;;;10.20;10.20;;;;;28.47;41.66;100119.09;5096260;28;8968;-63
2022/08/24 08:42:33;;;;;;;;;8.60;8.60;;;;;28.54;41.36;100106.13;5095861;28;8930;-62
2022/08/24 08:45:01;;;;;;;;;8.60;8.60;;;;;28.57;41.31;100105.66;5096562;28;8853;-62
2022/08/24 08:47:29;;;;;;;;;11.00;10.00;;;;;28.68;41.34;100106.75;5095913;28;8962;-62
2022/08/24 08:49:57;;;;;;;;;9.40;9.40;;;;;28.79;41.34;100109.53;5095563;28;8846;-61
2022/08/24 08:52:26;;;;;;;;;9.00;8.20;;;;;28.92;41.10;100112.06;5094857;28;8826;-61
2022/08/24 08:54:53;;;;;;;;;7.40;7.40;;;;;29.04;41.12;100106.63;5095248;28;8973;-63
2022/08/24 08:57:21;;;;;;;;;10.80;10.00;;;;;29.16;40.91;100111.03;5079986;28;8838;-62
2022/08/24 08:59:49;;;;;;;;;9.80;9.00;;;;;29.28;40.40;100105.56;5096856;28;8922;-62
2022/08/24 09:02:17;;;;;;;;;9.80;9.80;;;;;29.37;40.27;100104.97;5095894;28;8896;-61
2022/08/24 09:04:45;;;;;;;;;8.40;7.00;;;;;29.48;40.20;100106.00;5095653;28;8887;-62
2022/08/24 09:07:13;;;;;;;;;6.00;6.00;;;;;29.56;40.32;100109.28;5096912;28;8981;-62
2022/08/24 09:09:41;;;;;;;;;8.80;8.40;;;;;29.59;40.04;100106.03;5096761;28;9488;-64
2022/08/24 09:12:08;;;;;;;;;5.00;5.00;;;;;29.65;39.73;100104.25;5096301;28;8822;-62
2022/08/24 09:14:36;;;;;;;;;9.20;9.20;;;;;29.71;40.19;100109.63;5096535;28;8874;-62
2022/08/24 09:17:04;;;;;;;;;9.40;9.00;;;;;29.78;40.07;100102.09;5096259;28;8822;-62
2022/08/24 09:19:38;;;;;;;;;9.00;9.00;;;;;29.93;39.58;100104.31;5096579;28;9004;-62
2022/08/24 09:22:06;;;;;;;;;10.20;9.00;;;;;30.05;39.28;100105.97;5095140;28;8834;-62
2022/08/24 09:24:34;;;;;;;;;7.00;7.00;;;;;30.14;39.26;100100.94;5095665;28;9261;-62
2022/08/24 09:27:02;;;;;;;;;9.80;9.80;;;;;30.29;39.25;100103.97;5095005;28;8891;-62
2022/08/24 09:29:29;;;;;;;;;7.40;7.20;;;;;30.48;38.70;100100.78;5094771;28;8931;-62
2022/08/24 09:31:59;;;;;;;;;9.00;8.20;;;;;30.65;38.85;100098.97;5095546;28;8947;-61
2022/08/24 09:34:26;;;;;;;;;6.40;6.40;;;;;30.75;38.68;100101.88;5095161;28;8852;-61
2022/08/24 09:36:54;;;;;;;;;8.60;8.60;;;;;30.84;38.47;100100.38;5092922;28;9630;-62
2022/08/24 09:39:22;;;;;;;;;8.40;7.60;;;;;30.99;38.54;100098.72;5092999;28;9231;-62
2022/08/24 09:41:51;;;;;;;;;8.20;7.00;;;;;31.18;37.92;100096.59;5091430;28;8855;-62
2022/08/24 09:44:18;;;;;;;;;9.00;8.80;;;;;31.35;37.48;100089.13;5091449;28;8851;-62
2022/08/24 09:46:46;;;;;;;;;8.00;7.00;;;;;31.50;37.13;100092.13;5092330;28;9536;-62
2022/08/24 09:49:14;;;;;;;;;9.00;9.00;;;;;31.68;37.32;100097.31;5091622;28;9183;-62
2022/08/24 09:51:42;;;;;;;;;9.00;9.00;;;;;31.96;36.72;100097.19;5092599;28;8840;-62
2022/08/24 09:54:11;;;;;;;;;7.00;6.40;;;;;32.36;36.56;100095.78;5091900;28;8854;-62
2022/08/24 09:56:39;;;;;;;;;9.80;9.00;;;;;32.91;35.27;100092.75;5092871;28;8971;-62
2022/08/24 09:59:07;;;;;;;;;8.00;7.00;;;;;33.57;35.06;100094.91;5093582;28;9505;-62
2022/08/24 10:01:34;;;;;;;;;8.60;8.60;;;;;34.27;34.14;100093.38;5093182;28;8840;-62
2022/08/24 10:04:02;;;;;;;;;9.40;9.20;;;;;34.91;33.19;100094.63;5093381;28;8851;-63
2022/08/24 10:06:31;;;;;;;;;6.00;6.00;;;;;35.51;32.60;100083.53;5094030;28;8844;-63
2022/08/24 10:08:59;;;;;;;;;10.80;10.60;;;;;35.94;31.63;100084.81;5093728;28;8957;-62
2022/08/24 10:11:26;;;;;;;;;8.00;8.00;;;;;36.30;31.71;100076.88;5094500;28;8832;-62
2022/08/24 10:13:55;;;;;;;;;8.40;8.00;;;;;36.69;31.39;100075.00;5092797;28;8966;-62
2022/08/24 10:16:22;;;;;;;;;8.20;8.20;;;;;37.07;31.19;100068.59;5092868;28;9505;-62
2022/08/24 10:18:51;;;;;;;;;9.60;9.60;;;;;37.39;30.57;100066.03;5093290;28;8886;-62
2022/08/24 10:21:19;;;;;;;;;7.80;7.80;;;;;37.67;30.44;100062.44;5092992;28;8998;-62
2022/08/24 10:23:47;;;;;;;;;7.00;7.00;;;;;37.97;30.44;100061.25;5092858;28;8839;-62
2022/08/24 10:26:14;;;;;;;;;9.00;9.00;;;;;38.27;29.72;100066.41;5090995;28;8978;-63
2022/08/24 10:28:43;;;;;;;;;9.60;9.20;;;;;38.59;29.76;100067.34;5090626;28;8966;-63
2022/08/24 10:31:10;;;;;;;;;9.20;8.60;;;;;38.91;29.35;100061.03;5089921;28;8828;-62
2022/08/24 10:33:39;;;;;;;;;8.80;8.80;;;;;39.23;29.08;100056.28;5090912;28;8852;-62
2022/08/24 10:36:07;;;;;;;;;9.00;9.00;;;;;39.44;28.31;100043.63;5091239;28;8842;-62
2022/08/24 10:41:21;;;;;;;;;8.60;7.60;;;;;39.84;28.09;100045.63;5091272;28;8839;-63
2022/08/24 10:43:47;;;;;;;;;9.20;8.20;;;;;40.06;27.78;100048.50;5092551;28;8820;-62
2022/08/24 10:46:15;;;;;;;;;8.00;8.00;;;;;40.36;28.07;100047.88;5091890;28;8836;-63
2022/08/24 10:48:43;;;;;;;;;7.40;7.40;;;;;40.69;27.10;100051.28;5092310;28;8839;-63
2022/08/24 10:51:11;;;;;;;;;8.40;8.40;;;;;40.91;27.97;100043.72;5092704;28;9643;-62
2022/08/24 10:53:39;;;;;;;;;10.00;8.60;;;;;41.07;27.07;100042.22;5091105;28;8906;-62
2022/08/24 10:56:07;;;;;;;;;7.60;7.00;;;;;41.25;27.15;100043.97;5090035;28;9506;-62
2022/08/24 10:58:36;;;;;;;;;6.80;6.20;;;;;41.60;26.70;100033.81;5093045;28;8859;-63
2022/08/24 11:01:04;;;;;;;;;7.00;7.00;;;;;41.85;27.10;100036.72;5090778;28;8847;-63
2022/08/24 11:03:31;;;;;;;;;7.40;7.40;;;;;42.01;26.30;100041.53;5090646;28;8863;-63
2022/08/24 11:05:59;;;;;;;;;9.00;8.40;;;;;42.21;26.37;100035.34;5090522;28;8951;-62
2022/08/24 11:08:27;;;;;;;;;8.60;8.40;;;;;42.47;25.77;100039.00;5091395;28;8851;-63
2022/08/24 11:10:55;;;;;;;;;8.40;8.00;;;;;42.55;25.91;100040.19;5090800;28;8848;-63
2022/08/24 11:13:23;;;;;;;;;6.60;6.60;;;;;42.63;26.32;100042.97;5091252;28;8885;-63
2022/08/24 11:15:51;;;;;;;;;9.00;9.00;;;;;42.64;26.04;100041.81;5088787;28;8850;-63
2022/08/24 11:18:19;;;;;;;;;9.40;9.40;;;;;42.77;25.60;100032.41;5089317;28;8964;-63
2022/08/24 11:20:47;;;;;;;;;8.40;8.40;;;;;42.93;25.69;100024.34;5089185;28;8840;-63
2022/08/24 11:23:15;;;;;;;;;7.60;7.60;;;;;43.09;25.55;100033.88;5090737;28;8996;-63
2022/08/24 11:25:43;;;;;;;;;8.00;8.00;;;;;43.17;25.01;100019.84;5090734;28;8984;-63
2022/08/24 11:28:13;;;;;;;;;6.80;6.40;;;;;43.30;24.94;100020.78;5091388;28;8840;-63
2022/08/24 11:30:41;;;;;;;;;7.00;7.00;;;;;43.33;25.00;100029.41;5088715;28;9652;-63
2022/08/24 11:33:09;;;;;;;;;8.60;8.60;;;;;43.42;24.96;100020.94;5088373;28;8876;-62
2022/08/24 11:35:38;;;;;;;;;10.00;8.60;;;;;43.48;25.46;100017.63;5088004;28;8839;-62
2022/08/24 11:38:06;;;;;;;;;9.20;8.60;;;;;43.66;25.10;100015.53;5087595;28;8867;-63
2022/08/24 11:40:33;;;;;;;;;10.60;10.00;;;;;43.70;24.43;100008.97;5086894;28;9010;-63